Time,TemperatureF,DewpointF,PressureIn,WindDirection,WindDirectionDegrees,WindSpeedMPH,WindSpeedGustMPH,Humidity,HourlyPrecipIn,Conditions,Clouds,dailyrainin,SoftwareType,DateUTC
2013-03-07 00:40:00,26.1,21.3,30.27,West,270,0.0,0.0,82,0.00,,,0.00,WUHU21623XXSP,2013-03-07 06:40:00,
2013-03-07 01:40:00,25.9,21.4,30.30,WNW,293,0.0,0.0,83,0.00,,,0.00,WUHU21623XXSP,2013-03-07 07:40:00,
2013-03-07 02:40:00,25.7,21.2,30.30,West,270,0.0,0.0,83,0.00,,,0.00,WUHU21623XXSP,2013-03-07 08:40:00,
2013-03-07 03:40:00,25.5,21.3,30.31,WNW,293,0.0,0.0,84,0.00,,,0.00,WUHU21623XXSP,2013-03-07 09:40:00,
2013-03-07 04:40:00,25.5,21.0,30.30,WNW,293,0.0,0.0,83,0.00,,,0.00,WUHU21623XXSP,2013-03-07 10:40:00,
2013-03-07 05:40:00,25.5,21.0,30.30,WNW,293,0.0,0.0,83,0.00,,,0.00,WUHU21623XXSP,2013-03-07 11:40:00,
2013-03-07 06:40:00,25.5,21.3,30.33,WNW,293,0.0,0.0,84,0.00,,,0.00,WUHU21623XXSP,2013-03-07 12:40:00,
2013-03-07 07:38:00,28.6,24.0,30.34,WNW,292,0.0,0.0,83,0.00,,,0.00,WUHU21623XXSP,2013-03-07 13:38:00,
2013-03-07 07:43:00,28.9,24.1,30.34,WNW,292,0.0,0.0,82,0.00,,,1.34,WUHU21623XXSP,2013-03-07 13:43:00,
2013-03-07 07:48:00,29.5,24.7,30.35,WNW,292,0.0,0.0,82,0.00,,,1.34,WUHU21623XXSP,2013-03-07 13:48:00,
2013-03-07 07:53:00,30.0,24.9,30.34,WNW,292,0.0,0.0,81,0.00,,,1.34,WUHU21623XXSP,2013-03-07 13:53:00,
2013-03-07 07:58:00,30.7,25.6,30.35,WNW,292,0.0,0.0,81,0.00,,,1.34,WUHU21623XXSP,2013-03-07 13:58:00,
2013-03-07 08:03:00,31.1,26.0,30.35,WNW,292,0.0,0.0,81,0.00,,,1.34,WUHU21623XXSP,2013-03-07 14:03:00,
2013-03-07 08:08:00,31.6,26.2,30.35,WNW,292,0.0,0.0,80,0.00,,,1.34,WUHU21623XXSP,2013-03-07 14:08:00,
2013-03-07 08:13:00,31.8,26.1,30.35,WNW,292,2.2,2.2,79,0.00,,,1.34,WUHU21623XXSP,2013-03-07 14:13:00,
2013-03-07 08:18:00,32.2,26.4,30.35,WNW,292,0.0,2.7,79,0.00,,,1.34,WUHU21623XXSP,2013-03-07 14:18:00,
2013-03-07 08:23:00,32.5,26.4,30.35,WNW,292,0.0,3.8,78,0.00,,,1.34,WUHU21623XXSP,2013-03-07 14:23:00,
2013-03-07 08:28:00,32.9,26.4,30.35,WNW,292,0.0,3.8,77,0.00,,,1.34,WUHU21623XXSP,2013-03-07 14:28:00,
2013-03-07 08:33:00,33.1,26.3,30.35,WNW,292,1.8,3.1,76,0.00,,,1.34,WUHU21623XXSP,2013-03-07 14:33:00,
2013-03-07 08:38:00,33.8,26.8,30.36,WNW,292,0.0,2.9,76,0.00,,,1.34,WUHU21623XXSP,2013-03-07 14:38:00,
2013-03-07 08:43:00,34.3,27.1,30.36,WNW,292,0.0,1.8,75,0.00,,,1.34,WUHU21623XXSP,2013-03-07 14:43:00,
2013-03-07 08:48:00,34.3,26.5,30.36,West,270,0.0,0.0,73,0.00,,,1.34,WUHU21623XXSP,2013-03-07 14:48:00,
2013-03-07 08:53:00,34.5,26.7,30.36,West,270,0.0,1.8,73,0.00,,,1.34,WUHU21623XXSP,2013-03-07 14:53:00,
2013-03-07 08:58:00,34.9,27.0,30.36,West,270,0.0,2.5,73,0.00,,,1.34,WUHU21623XXSP,2013-03-07 14:58:00,
2013-03-07 09:03:00,35.4,27.2,30.36,West,270,0.0,0.0,72,0.00,,,1.34,WUHU21623XXSP,2013-03-07 15:03:00,
2013-03-07 09:08:00,35.8,27.6,30.36,WNW,292,0.7,2.7,72,0.00,,,1.34,WUHU21623XXSP,2013-03-07 15:08:00,
2013-03-07 09:13:00,36.1,27.6,30.36,WNW,292,0.0,4.0,71,0.00,,,1.34,WUHU21623XXSP,2013-03-07 15:13:00,
2013-03-07 09:18:00,36.3,27.5,30.37,West,270,0.7,4.0,70,0.00,,,1.34,WUHU21623XXSP,2013-03-07 15:18:00,
2013-03-07 09:23:00,36.3,27.5,30.37,WNW,292,0.0,3.6,70,0.00,,,1.34,WUHU21623XXSP,2013-03-07 15:23:00,
2013-03-07 09:28:00,36.9,28.0,30.37,WNW,292,0.0,3.4,70,0.00,,,1.34,WUHU21623XXSP,2013-03-07 15:28:00,
2013-03-07 09:33:00,37.2,27.6,30.37,WNW,292,0.0,3.8,68,0.00,,,1.34,WUHU21623XXSP,2013-03-07 15:33:00,
2013-03-07 09:38:00,37.2,27.6,30.37,WNW,292,0.0,3.8,68,0.00,,,1.34,WUHU21623XXSP,2013-03-07 15:38:00,
2013-03-07 09:43:00,37.9,28.3,30.37,WNW,292,0.0,3.1,68,0.00,,,1.34,WUHU21623XXSP,2013-03-07 15:43:00,
2013-03-07 09:48:00,38.3,28.6,30.37,WNW,292,0.0,3.1,68,0.00,,,1.34,WUHU21623XXSP,2013-03-07 15:48:00,
2013-03-07 09:53:00,39.0,28.9,30.38,WNW,292,0.0,2.2,67,0.00,,,1.34,WUHU21623XXSP,2013-03-07 15:53:00,
2013-03-07 09:58:00,39.7,29.6,30.37,WNW,292,0.0,2.2,67,0.00,,,1.34,WUHU21623XXSP,2013-03-07 15:58:00,
2013-03-07 10:03:00,40.5,29.6,30.38,WNW,292,0.0,1.1,65,0.00,,,1.34,WUHU21623XXSP,2013-03-07 16:03:00,
2013-03-07 10:08:00,40.8,29.9,30.38,WNW,292,0.0,3.1,65,0.00,,,1.34,WUHU21623XXSP,2013-03-07 16:08:00,
2013-03-07 10:13:00,41.4,30.1,30.38,West,270,0.0,3.1,64,0.00,,,1.34,WUHU21623XXSP,2013-03-07 16:13:00,
2013-03-07 10:18:00,41.5,29.8,30.38,West,270,0.0,2.5,63,0.00,,,1.34,WUHU21623XXSP,2013-03-07 16:18:00,
2013-03-07 10:23:00,41.7,29.6,30.38,WSW,247,0.0,2.5,62,0.00,,,1.34,WUHU21623XXSP,2013-03-07 16:23:00,
2013-03-07 10:28:00,42.1,30.0,30.38,WSW,247,0.0,1.6,62,0.00,,,1.34,WUHU21623XXSP,2013-03-07 16:28:00,
2013-03-07 10:33:00,42.4,29.9,30.38,WSW,247,0.0,2.7,61,0.00,,,1.34,WUHU21623XXSP,2013-03-07 16:33:00,
2013-03-07 10:38:00,42.6,30.1,30.38,West,270,0.0,2.7,61,0.00,,,1.34,WUHU21623XXSP,2013-03-07 16:38:00,
2013-03-07 10:44:00,43.0,30.4,30.38,West,270,0.0,0.0,61,0.00,,,1.34,WUHU21623XXSP,2013-03-07 16:44:00,
2013-03-07 10:49:00,43.3,30.4,30.37,WSW,247,0.0,1.1,60,0.00,,,1.34,WUHU21623XXSP,2013-03-07 16:49:00,
2013-03-07 10:54:00,44.1,31.1,30.37,WSW,247,0.0,1.1,60,0.00,,,1.34,WUHU21623XXSP,2013-03-07 16:54:00,
2013-03-07 10:59:00,45.0,31.5,30.37,WSW,247,0.0,0.0,59,0.00,,,1.34,WUHU21623XXSP,2013-03-07 16:59:00,
2013-03-07 11:04:00,45.0,31.1,30.37,WSW,247,0.0,0.0,58,0.00,,,1.34,WUHU21623XXSP,2013-03-07 17:04:00,
2013-03-07 11:09:00,45.7,31.7,30.37,WSW,247,0.0,0.0,58,0.00,,,1.34,WUHU21623XXSP,2013-03-07 17:09:00,
2013-03-07 11:14:00,46.2,31.7,30.37,WSW,247,0.0,0.0,57,0.00,,,1.34,WUHU21623XXSP,2013-03-07 17:14:00,
2013-03-07 11:19:00,46.6,31.6,30.37,WSW,247,0.0,0.0,56,0.00,,,1.34,WUHU21623XXSP,2013-03-07 17:19:00,
2013-03-07 11:24:00,46.6,31.6,30.37,WSW,247,0.0,0.0,56,0.00,,,1.34,WUHU21623XXSP,2013-03-07 17:24:00,
2013-03-07 11:29:00,46.9,31.5,30.37,WSW,247,0.0,0.0,55,0.00,,,1.34,WUHU21623XXSP,2013-03-07 17:29:00,
2013-03-07 11:34:00,47.3,31.9,30.37,WSW,247,0.0,0.0,55,0.00,,,1.34,WUHU21623XXSP,2013-03-07 17:34:00,
2013-03-07 11:39:00,47.5,32.0,30.37,WSW,247,0.0,0.0,55,0.00,,,1.34,WUHU21623XXSP,2013-03-07 17:39:00,
2013-03-07 11:44:00,47.3,31.4,30.37,WSW,247,0.0,0.0,54,0.00,,,1.34,WUHU21623XXSP,2013-03-07 17:44:00,
2013-03-07 11:49:00,47.1,31.2,30.37,WSW,247,0.0,0.0,54,0.00,,,1.34,WUHU21623XXSP,2013-03-07 17:49:00,
2013-03-07 11:54:00,46.8,30.9,30.37,West,270,0.0,2.0,54,0.00,,,1.34,WUHU21623XXSP,2013-03-07 17:54:00,
2013-03-07 11:59:00,46.2,30.8,30.36,WNW,292,0.0,2.0,55,0.00,,,1.34,WUHU21623XXSP,2013-03-07 17:59:00,
2013-03-07 12:04:00,46.0,30.7,30.36,WNW,292,0.0,2.2,55,0.00,,,1.34,WUHU21623XXSP,2013-03-07 18:04:00,
2013-03-07 12:09:00,45.5,30.2,30.36,WNW,292,0.0,2.5,55,0.00,,,1.34,WUHU21623XXSP,2013-03-07 18:09:00,
2013-03-07 12:14:00,45.1,29.9,30.36,WNW,292,0.0,3.1,55,0.00,,,1.34,WUHU21623XXSP,2013-03-07 18:14:00,
2013-03-07 12:19:00,45.0,29.7,30.36,WNW,292,0.0,3.4,55,0.00,,,1.34,WUHU21623XXSP,2013-03-07 18:19:00,
2013-03-07 12:24:00,44.8,29.6,30.36,WNW,292,0.0,3.4,55,0.00,,,1.34,WUHU21623XXSP,2013-03-07 18:24:00,
2013-03-07 12:29:00,44.4,29.7,30.36,WNW,292,0.0,2.2,56,0.00,,,1.34,WUHU21623XXSP,2013-03-07 18:29:00,
2013-03-07 12:34:00,44.4,29.7,30.36,WNW,292,0.0,2.5,56,0.00,,,1.34,WUHU21623XXSP,2013-03-07 18:34:00,
2013-03-07 12:39:00,44.2,29.5,30.35,WNW,292,0.0,2.5,56,0.00,,,1.34,WUHU21623XXSP,2013-03-07 18:39:00,
2013-03-07 12:44:00,44.2,29.5,30.35,WNW,292,0.0,2.5,56,0.00,,,1.34,WUHU21623XXSP,2013-03-07 18:44:00,
2013-03-07 12:49:00,44.4,29.7,30.35,WNW,292,0.0,2.7,56,0.00,,,1.34,WUHU21623XXSP,2013-03-07 18:49:00,
2013-03-07 12:54:00,44.4,29.2,30.35,WNW,292,0.0,2.9,55,0.00,,,1.34,WUHU21623XXSP,2013-03-07 18:54:00,
2013-03-07 12:59:00,44.4,29.2,30.35,WNW,292,0.0,3.8,55,0.00,,,1.34,WUHU21623XXSP,2013-03-07 18:59:00,
2013-03-07 13:04:00,44.4,29.7,30.34,WNW,292,0.0,3.8,56,0.00,,,1.34,WUHU21623XXSP,2013-03-07 19:04:00,
2013-03-07 13:09:00,44.4,29.7,30.34,WNW,292,0.0,2.0,56,0.00,,,1.34,WUHU21623XXSP,2013-03-07 19:09:00,
2013-03-07 13:14:00,43.7,29.0,30.33,WNW,292,0.0,0.0,56,0.00,,,1.34,WUHU21623XXSP,2013-03-07 19:14:00,
2013-03-07 13:20:00,43.0,28.3,30.33,WNW,292,0.0,0.0,56,0.00,,,1.34,WUHU21623XXSP,2013-03-07 19:20:00,
2013-03-07 13:25:00,42.6,28.4,30.33,WNW,292,0.0,0.0,57,0.00,,,1.34,WUHU21623XXSP,2013-03-07 19:25:00,
2013-03-07 13:30:00,42.3,28.5,30.33,WNW,292,0.0,0.0,58,0.00,,,1.34,WUHU21623XXSP,2013-03-07 19:30:00,
2013-03-07 13:35:00,41.7,27.5,30.33,WNW,292,0.0,0.0,57,0.00,,,1.34,WUHU21623XXSP,2013-03-07 19:35:00,
2013-03-07 13:40:00,41.5,27.8,30.33,WNW,292,0.0,0.0,58,0.00,,,1.34,WUHU21623XXSP,2013-03-07 19:40:00,
2013-03-07 13:45:00,41.9,28.1,30.33,WNW,292,0.0,0.0,58,0.00,,,1.34,WUHU21623XXSP,2013-03-07 19:45:00,
2013-03-07 13:50:00,42.6,28.8,30.33,WNW,292,0.0,0.0,58,0.00,,,1.34,WUHU21623XXSP,2013-03-07 19:50:00,
2013-03-07 13:55:00,43.5,29.2,30.33,WNW,292,0.0,0.0,57,0.00,,,1.34,WUHU21623XXSP,2013-03-07 19:55:00,
2013-03-07 14:00:00,44.4,30.1,30.33,WNW,292,0.0,0.0,57,0.00,,,1.34,WUHU21623XXSP,2013-03-07 20:00:00,
2013-03-07 14:05:00,45.1,30.3,30.33,SSE,157,0.0,2.0,56,0.00,,,1.34,WUHU21623XXSP,2013-03-07 20:05:00,
2013-03-07 14:10:00,45.5,30.2,30.33,SSE,157,0.0,2.0,55,0.00,,,1.34,WUHU21623XXSP,2013-03-07 20:10:00,
2013-03-07 14:15:00,45.3,30.0,30.33,SSE,157,0.0,0.9,55,0.00,,,1.34,WUHU21623XXSP,2013-03-07 20:15:00,
2013-03-07 14:20:00,45.1,29.9,30.34,SSE,157,0.0,3.4,55,0.00,,,1.34,WUHU21623XXSP,2013-03-07 20:20:00,
2013-03-07 14:25:00,45.0,29.7,30.34,SSE,157,0.0,3.8,55,0.00,,,1.34,WUHU21623XXSP,2013-03-07 20:25:00,
2013-03-07 14:30:00,45.0,29.7,30.34,SSE,157,0.0,4.9,55,0.00,,,1.34,WUHU21623XXSP,2013-03-07 20:30:00,
2013-03-07 14:35:00,44.2,29.0,30.35,SSE,157,0.0,4.9,55,0.00,,,1.34,WUHU21623XXSP,2013-03-07 20:35:00,
2013-03-07 14:40:00,43.5,28.4,30.35,SSE,157,0.0,0.0,55,0.00,,,1.34,WUHU21623XXSP,2013-03-07 20:40:00,
2013-03-07 14:45:00,43.5,28.8,30.35,SSE,157,0.0,1.3,56,0.00,,,1.34,WUHU21623XXSP,2013-03-07 20:45:00,
2013-03-07 14:51:00,43.5,28.8,30.35,SSE,157,0.0,1.3,56,0.00,,,1.34,WUHU21623XXSP,2013-03-07 20:51:00,
2013-03-07 14:56:00,43.3,29.1,30.34,SSE,157,0.0,1.3,57,0.00,,,1.34,WUHU21623XXSP,2013-03-07 20:56:00,
2013-03-07 15:01:00,43.2,28.9,30.34,SSE,157,0.0,1.3,57,0.00,,,1.34,WUHU21623XXSP,2013-03-07 21:01:00,
2013-03-07 15:06:00,43.0,28.7,30.35,SSE,157,0.0,0.0,57,0.00,,,1.34,WUHU21623XXSP,2013-03-07 21:06:00,
2013-03-07 15:11:00,42.6,28.8,30.34,SSE,157,0.0,0.0,58,0.00,,,1.34,WUHU21623XXSP,2013-03-07 21:11:00,
2013-03-07 15:16:00,42.6,28.8,30.34,SSE,157,0.0,0.0,58,0.00,,,1.34,WUHU21623XXSP,2013-03-07 21:16:00,
2013-03-07 15:21:00,42.6,28.8,30.34,SSE,157,0.0,0.0,58,0.00,,,1.34,WUHU21623XXSP,2013-03-07 21:21:00,
2013-03-07 15:26:00,42.4,28.6,30.35,SE,135,1.1,2.9,58,0.00,,,1.34,WUHU21623XXSP,2013-03-07 21:26:00,
2013-03-07 15:31:00,42.3,28.5,30.34,SE,135,4.3,4.3,58,0.00,,,1.34,WUHU21623XXSP,2013-03-07 21:31:00,
2013-03-07 15:36:00,41.9,28.1,30.35,South,180,0.0,4.3,58,0.00,,,1.34,WUHU21623XXSP,2013-03-07 21:36:00,
2013-03-07 15:41:00,41.5,28.3,30.35,South,180,0.0,3.8,59,0.00,,,1.34,WUHU21623XXSP,2013-03-07 21:41:00,
2013-03-07 15:46:00,41.0,27.8,30.35,South,180,0.0,1.8,59,0.00,,,1.34,WUHU21623XXSP,2013-03-07 21:46:00,
2013-03-07 15:51:00,40.6,27.9,30.35,South,180,0.0,1.8,60,0.00,,,1.34,WUHU21623XXSP,2013-03-07 21:51:00,
2013-03-07 15:56:00,40.3,27.5,30.35,South,180,0.0,0.9,60,0.00,,,1.34,WUHU21623XXSP,2013-03-07 21:56:00,
2013-03-07 16:01:00,40.1,27.3,30.35,South,180,0.0,0.0,60,0.00,,,1.34,WUHU21623XXSP,2013-03-07 22:01:00,
2013-03-07 16:06:00,39.9,27.1,30.35,South,180,0.0,0.0,60,0.00,,,1.34,WUHU21623XXSP,2013-03-07 22:06:00,
2013-03-07 16:11:00,39.7,27.3,30.35,SSE,157,0.0,0.0,61,0.00,,,1.34,WUHU21623XXSP,2013-03-07 22:11:00,
2013-03-07 16:16:00,39.4,27.0,30.36,SSE,157,0.0,0.0,61,0.00,,,1.34,WUHU21623XXSP,2013-03-07 22:16:00,
2013-03-07 16:21:00,39.0,27.0,30.36,SSE,157,0.0,1.6,62,0.00,,,1.34,WUHU21623XXSP,2013-03-07 22:21:00,
2013-03-07 16:26:00,38.8,27.2,30.36,SE,135,0.0,3.8,63,0.00,,,1.34,WUHU21623XXSP,2013-03-07 22:26:00,
2013-03-07 16:31:00,38.5,26.9,30.36,ESE,112,1.6,5.1,63,0.00,,,1.34,WUHU21623XXSP,2013-03-07 22:31:00,
2013-03-07 16:36:00,37.9,26.4,30.36,SE,135,0.0,5.1,63,0.00,,,1.34,WUHU21623XXSP,2013-03-07 22:36:00,
2013-03-07 16:41:00,37.4,26.3,30.36,SE,135,0.0,4.3,64,0.00,,,1.34,WUHU21623XXSP,2013-03-07 22:41:00,
2013-03-07 16:46:00,37.2,26.5,30.36,SE,135,2.2,7.2,65,0.00,,,1.34,WUHU21623XXSP,2013-03-07 22:46:00,
2013-03-07 16:51:00,36.9,26.2,30.36,SSE,157,0.0,7.2,65,0.00,,,1.34,WUHU21623XXSP,2013-03-07 22:51:00,
2013-03-07 16:56:00,36.5,25.8,30.36,SSE,157,0.0,2.9,65,0.00,,,1.34,WUHU21623XXSP,2013-03-07 22:56:00,
2013-03-07 17:02:00,36.3,26.0,30.36,SSE,157,0.0,0.9,66,0.00,,,1.34,WUHU21623XXSP,2013-03-07 23:02:00,
2013-03-07 17:07:00,36.1,25.8,30.36,SSE,157,0.0,0.0,66,0.00,,,1.34,WUHU21623XXSP,2013-03-07 23:07:00,
2013-03-07 17:12:00,35.8,25.9,30.36,SE,135,0.0,2.2,67,0.00,,,1.34,WUHU21623XXSP,2013-03-07 23:12:00,
2013-03-07 17:17:00,35.6,25.7,30.36,SSE,157,2.5,5.4,67,0.00,,,1.34,WUHU21623XXSP,2013-03-07 23:17:00,
2013-03-07 17:22:00,35.2,25.3,30.36,SSE,157,0.0,5.4,67,0.00,,,1.34,WUHU21623XXSP,2013-03-07 23:22:00,
2013-03-07 17:27:00,35.2,25.3,30.36,SSE,157,0.0,2.0,67,0.00,,,1.34,WUHU21623XXSP,2013-03-07 23:27:00,
2013-03-07 17:32:00,34.7,25.2,30.35,SE,135,0.0,1.6,68,0.00,,,1.34,WUHU21623XXSP,2013-03-07 23:32:00,
2013-03-07 17:37:00,34.3,24.8,30.36,SE,135,2.2,3.1,68,0.00,,,1.34,WUHU21623XXSP,2013-03-07 23:37:00,
2013-03-07 17:42:00,34.3,25.2,30.36,SE,135,2.7,4.3,69,0.00,,,1.34,WUHU21623XXSP,2013-03-07 23:42:00,
2013-03-07 17:47:00,34.0,24.8,30.36,SE,135,0.0,4.3,69,0.00,,,1.34,WUHU21623XXSP,2013-03-07 23:47:00,
2013-03-07 17:52:00,33.6,24.8,30.36,SE,135,0.0,3.4,70,0.00,,,1.34,WUHU21623XXSP,2013-03-07 23:52:00,
2013-03-07 17:57:00,33.3,24.5,30.36,SE,135,0.0,3.6,70,0.00,,,1.34,WUHU21623XXSP,2013-03-07 23:57:00,
2013-03-07 18:02:00,32.9,24.5,30.36,SE,135,0.0,3.6,71,0.00,,,1.34,WUHU21623XXSP,2013-03-08 00:02:00,
2013-03-07 18:07:00,32.5,24.5,30.36,SE,135,0.0,0.0,72,0.00,,,1.34,WUHU21623XXSP,2013-03-08 00:07:00,
2013-03-07 18:12:00,32.4,24.3,30.36,ESE,112,0.0,5.4,72,0.00,,,1.34,WUHU21623XXSP,2013-03-08 00:12:00,
2013-03-07 18:17:00,32.2,24.5,30.36,ESE,112,0.2,5.4,73,0.00,,,1.34,WUHU21623XXSP,2013-03-08 00:17:00,
2013-03-07 18:22:00,31.8,24.5,30.36,ESE,112,0.0,4.5,74,0.00,,,1.34,WUHU21623XXSP,2013-03-08 00:22:00,
2013-03-07 18:27:00,31.6,24.3,30.36,ESE,112,0.0,4.0,74,0.00,,,1.34,WUHU21623XXSP,2013-03-08 00:27:00,
2013-03-07 18:40:00,30.6,23.3,30.36,ESE,113,0.0,0.0,74,0.00,,,0.00,WUHU21623XXSP,2013-03-08 00:40:00,
2013-03-07 19:40:00,28.6,22.3,30.35,SSE,158,0.0,0.0,77,0.00,,,0.00,WUHU21623XXSP,2013-03-08 01:40:00,
2013-03-07 20:40:00,27.1,21.5,30.35,SSE,158,0.0,0.0,79,0.00,,,0.00,WUHU21623XXSP,2013-03-08 02:40:00,
2013-03-07 21:40:00,26.2,21.2,30.36,SE,135,0.0,0.0,81,0.00,,,0.00,WUHU21623XXSP,2013-03-08 03:40:00,
2013-03-07 22:40:00,25.0,20.3,30.36,ESE,113,0.0,0.0,82,0.00,,,0.00,WUHU21623XXSP,2013-03-08 04:40:00,
2013-03-07 23:40:00,23.9,19.5,30.36,ESE,113,0.4,0.4,83,0.00,,,0.00,WUHU21623XXSP,2013-03-08 05:40:00,